Ana Sayfa
METAR-TAF:

METAR-TAF

Havaalanları :

Lismore, Avustralya

Enlem: 28-49-41S, Boylam: 153-15-36E, yükseklik: 11 m

Güncel hava durumu gözlemi

Rapor saat 04:00 UTC de 20 dakika önce yapıldı.
Rüzgar güneydoğudan 21 kt ve 32 kt'a kadar ani rüzgarlar
Sıcaklık 28°C
Nem 51%
Basınç 1007 hPa
Görüş mesafesi 10 km veya daha fazla
2900 ft yükseklikte parçalı çok bulutlu
3400 ft yükseklikte çok bulutlu

METAR: YLIS 160400Z AUTO 13021G32KT 9999 // BKN029 OVC034 28/17 Q1007

Saat: 15:20 (04:20 UTC)


TAF: eksik

4.000'den fazla havaalanı için hava durumu gözlemleri ve tahminleri (METAR ve TAF raporları).

Kullanılabilir istasyonlar harita üzerinde sarı ve kırmızı noktalarla gösterilir.

İstasyonun adını görmek için fareyi noktanın üzerinde gezdirin.

Sonrasında hava gözlem ve tahminlerini görmek için tıklayın.

Haritayı değiştirmek için: yaklaştırmak için siyah artı işaretli yeşil düğmeye ve uzaklaştırmak için de eksi işaretli düğmeye hızla tıklayın; bitişik haritalar için yeşil okları kullanın.


METAR-TAF: